Time;durP1;ratioP1;P1;durP2;ratioP2;P2;SDS_P1;SDS_P2;PMS_P1;PMS_P2;Temp;Humidity;BMP_temperature;BMP_pressure;BME280_temperature;BME280_humidity;BME280_pressure;Samples;Min_cycle;Max_cycle;Signal;HPM_P1;HPM_P2
2023/08/17 00:00:20;;;;;;;0.10;0.10;;;;;;;17.71;100.00;96787.06;4987019;28;20049;-80
2023/08/17 00:03:06;;;;;;;0.10;0.10;;;;;;;17.88;100.00;96786.63;4986917;28;20034;-80
2023/08/17 00:05:51;;;;;;;0.10;0.10;;;;;;;18.10;100.00;96790.44;4985974;28;20132;-81
2023/08/17 00:08:37;;;;;;;0.03;0.03;;;;;;;18.24;100.00;96778.91;4985720;28;20514;-80
2023/08/17 00:11:23;;;;;;;0.10;0.10;;;;;;;18.18;100.00;96786.28;4983724;28;20038;-80
2023/08/17 00:14:10;;;;;;;0.10;0.10;;;;;;;18.08;100.00;96792.63;4983876;28;20066;-80
2023/08/17 00:16:56;;;;;;;0.03;0.03;;;;;;;18.01;100.00;96784.03;4987754;28;20045;-80
2023/08/17 00:19:41;;;;;;;0.00;0.00;;;;;;;17.90;100.00;96790.69;4985024;28;20042;-80
2023/08/17 00:22:27;;;;;;;0.00;0.00;;;;;;;18.01;100.00;96786.75;4975352;28;20041;-80
2023/08/17 00:25:13;;;;;;;0.00;0.00;;;;;;;18.13;100.00;96783.63;4984765;28;20153;-80
2023/08/17 00:27:59;;;;;;;0.10;0.10;;;;;;;18.19;100.00;96785.19;4984877;28;20164;-81
2023/08/17 00:30:45;;;;;;;0.10;0.10;;;;;;;18.22;100.00;96779.22;4984180;28;20168;-80
2023/08/17 00:33:31;;;;;;;0.10;0.10;;;;;;;18.12;100.00;96786.63;4986079;28;20033;-80
2023/08/17 00:36:17;;;;;;;0.10;0.10;;;;;;;18.00;100.00;96785.13;4977106;28;20054;-80
2023/08/17 00:39:03;;;;;;;0.10;0.10;;;;;;;17.96;100.00;96786.00;4983822;28;20587;-80
2023/08/17 00:41:49;;;;;;;0.10;0.10;;;;;;;18.08;100.00;96791.81;4987714;28;20089;-80
2023/08/17 00:44:35;;;;;;;0.10;0.10;;;;;;;18.21;100.00;96784.88;4973404;28;20106;-81
2023/08/17 00:47:22;;;;;;;0.10;0.10;;;;;;;18.07;100.00;96779.38;4976733;28;20049;-81
2023/08/17 00:50:10;;;;;;;0.00;0.00;;;;;;;18.14;100.00;96782.56;4985202;28;20041;-80
2023/08/17 00:52:56;;;;;;;0.10;0.10;;;;;;;18.18;100.00;96780.06;4985176;28;20529;-80
2023/08/17 00:55:43;;;;;;;0.10;0.10;;;;;;;17.98;100.00;96776.50;4984923;28;20080;-80
2023/08/17 00:58:29;;;;;;;0.10;0.10;;;;;;;18.03;100.00;96789.16;4979408;28;20048;-80
2023/08/17 01:01:15;;;;;;;0.00;0.00;;;;;;;18.06;100.00;96789.41;4971839;28;20380;-80
2023/08/17 01:04:00;;;;;;;0.10;0.10;;;;;;;18.07;100.00;96785.59;4979409;28;20042;-81
2023/08/17 01:06:46;;;;;;;0.00;0.00;;;;;;;18.19;100.00;96787.88;4986272;28;20034;-81
2023/08/17 01:09:32;;;;;;;0.10;0.10;;;;;;;18.12;100.00;96782.00;4987898;28;20050;-80
2023/08/17 01:12:30;;;;;;;0.10;0.10;;;;;;;18.05;100.00;96776.97;4987277;28;20101;-80
2023/08/17 01:15:32;;;;;;;0.10;0.10;;;;;;;18.21;100.00;96776.75;4983883;28;20041;-81
2023/08/17 01:18:22;;;;;;;;;;;;;;;18.14;100.00;96774.44;4984435;28;20041;-81
2023/08/17 01:21:10;;;;;;;0.10;0.10;;;;;;;18.12;100.00;96773.91;4984327;28;19924;-81
2023/08/17 01:23:59;;;;;;;0.00;0.00;;;;;;;18.01;100.00;96769.69;4984981;28;20038;-80
2023/08/17 01:26:44;;;;;;;0.10;0.10;;;;;;;18.09;100.00;96759.03;4975455;28;20471;-80
2023/08/17 01:29:33;;;;;;;0.10;0.10;;;;;;;17.86;100.00;96757.13;4984883;28;20189;-81
2023/08/17 01:32:37;;;;;;;0.10;0.10;;;;;;;17.97;100.00;96753.22;4984068;28;20070;-80
2023/08/17 01:35:53;;;;;;;0.00;0.00;;;;;;;18.01;100.00;96745.34;4972529;28;20117;-81
2023/08/17 01:38:40;;;;;;;0.00;0.00;;;;;;;17.93;100.00;96744.06;4926380;28;20624;-81
2023/08/17 01:41:27;;;;;;;0.10;0.10;;;;;;;18.07;100.00;96742.28;4980102;28;20399;-81
2023/08/17 01:44:13;;;;;;;0.10;0.10;;;;;;;18.02;100.00;96744.25;4967030;28;20471;-81
2023/08/17 01:46:59;;;;;;;0.10;0.10;;;;;;;17.94;100.00;96748.38;4981580;28;20638;-81
2023/08/17 01:49:45;;;;;;;0.10;0.10;;;;;;;17.86;100.00;96753.63;4982041;28;20038;-81
2023/08/17 01:52:31;;;;;;;0.08;0.00;;;;;;;17.86;100.00;96756.34;4982589;28;20240;-81
2023/08/17 01:55:17;;;;;;;0.10;0.10;;;;;;;17.90;100.00;96747.38;4971986;28;20038;-81
2023/08/17 01:58:03;;;;;;;0.00;0.00;;;;;;;17.88;100.00;96744.13;4981935;28;20042;-81
2023/08/17 02:00:49;;;;;;;0.00;0.00;;;;;;;17.82;100.00;96745.28;4982380;28;20042;-80
2023/08/17 02:03:35;;;;;;;0.10;0.10;;;;;;;17.83;100.00;96738.78;4980633;28;20541;-82
2023/08/17 02:06:23;;;;;;;0.10;0.10;;;;;;;17.86;100.00;96740.91;4973216;28;20042;-82
2023/08/17 02:09:09;;;;;;;0.10;0.10;;;;;;;17.76;100.00;96741.03;4968517;28;20050;-82
2023/08/17 02:11:56;;;;;;;0.10;0.10;;;;;;;17.64;100.00;96754.09;4975067;28;20041;-82
2023/08/17 02:14:44;;;;;;;0.08;0.08;;;;;;;17.36;100.00;96747.63;4968939;28;20271;-82
2023/08/17 02:17:30;;;;;;;0.10;0.10;;;;;;;17.11;100.00;96759.44;4975289;28;20053;-83
2023/08/17 02:20:15;;;;;;;0.00;0.00;;;;;;;16.84;100.00;96760.72;4969893;28;20078;-82
2023/08/17 02:23:02;;;;;;;0.00;0.00;;;;;;;16.75;100.00;96759.72;4972362;28;20527;-82
2023/08/17 02:25:48;;;;;;;0.08;0.08;;;;;;;16.52;100.00;96760.38;4981172;28;20352;-83
2023/08/17 02:28:34;;;;;;;0.00;0.00;;;;;;;16.44;100.00;96759.84;4979589;28;20483;-82
2023/08/17 02:31:19;;;;;;;0.10;0.10;;;;;;;16.55;100.00;96752.50;4982749;28;20050;-82
2023/08/17 02:34:05;;;;;;;0.10;0.10;;;;;;;16.59;100.00;96755.47;4983750;28;20038;-82
2023/08/17 02:36:51;;;;;;;0.00;0.00;;;;;;;16.62;100.00;96749.50;4968584;28;20034;-82
2023/08/17 02:39:37;;;;;;;0.10;0.10;;;;;;;16.71;100.00;96732.44;4967136;28;20089;-82
2023/08/17 02:42:23;;;;;;;0.10;0.10;;;;;;;16.74;100.00;96741.88;4963320;28;20418;-82
2023/08/17 02:45:09;;;;;;;0.10;0.10;;;;;;;16.78;100.00;96731.31;4953653;28;20380;-82
2023/08/17 02:47:55;;;;;;;0.10;0.10;;;;;;;16.77;100.00;96724.31;4953497;28;20053;-82
2023/08/17 02:50:41;;;;;;;0.10;0.10;;;;;;;16.63;100.00;96718.69;4962816;28;20251;-82
2023/08/17 02:53:27;;;;;;;0.10;0.00;;;;;;;16.52;100.00;96722.56;4956335;28;20400;-82
2023/08/17 02:56:13;;;;;;;0.10;0.10;;;;;;;16.33;100.00;96725.88;4954160;28;20766;-82
2023/08/17 02:58:58;;;;;;;0.03;0.03;;;;;;;16.33;100.00;96717.78;4964494;28;20034;-82
2023/08/17 03:01:45;;;;;;;0.10;0.10;;;;;;;16.27;100.00;96708.13;4961445;28;20047;-82
2023/08/17 03:04:33;;;;;;;0.10;0.10;;;;;;;16.14;100.00;96712.22;4948857;28;20051;-82
2023/08/17 03:07:19;;;;;;;0.10;0.10;;;;;;;16.06;100.00;96714.69;4954636;28;20510;-82
2023/08/17 03:10:05;;;;;;;0.10;0.10;;;;;;;16.02;100.00;96719.81;4949709;28;20648;-82
2023/08/17 03:12:51;;;;;;;0.00;0.00;;;;;;;15.95;100.00;96713.09;4961793;28;20043;-81
2023/08/17 03:15:39;;;;;;;0.08;0.08;;;;;;;15.91;100.00;96715.56;4954439;28;20126;-82
2023/08/17 03:18:25;;;;;;;0.10;0.10;;;;;;;15.89;100.00;96712.34;4950182;28;20034;-82
2023/08/17 03:21:13;;;;;;;0.70;0.40;;;;;;;15.79;100.00;96713.16;4964944;28;20053;-82
2023/08/17 03:23:59;;;;;;;0.25;0.20;;;;;;;15.62;100.00;96712.69;4955564;28;20106;-82
2023/08/17 03:26:45;;;;;;;0.10;0.10;;;;;;;15.46;100.00;96713.78;4950541;28;20053;-83
2023/08/17 03:29:31;;;;;;;0.00;0.00;;;;;;;15.66;100.00;96702.16;4954596;28;20043;-82
2023/08/17 03:32:17;;;;;;;0.00;0.00;;;;;;;15.66;100.00;96705.66;4963938;28;20046;-81
2023/08/17 03:35:03;;;;;;;0.10;0.10;;;;;;;15.78;100.00;96716.94;4955317;28;20039;-81
2023/08/17 03:37:49;;;;;;;0.10;0.10;;;;;;;15.82;100.00;96711.81;4953682;28;20030;-82
2023/08/17 03:40:36;;;;;;;0.10;0.10;;;;;;;15.83;100.00;96706.16;4966153;28;20054;-81
2023/08/17 03:43:21;;;;;;;0.10;0.10;;;;;;;15.72;100.00;96712.66;4970324;28;20038;-81
2023/08/17 03:46:08;;;;;;;0.10;0.10;;;;;;;15.50;100.00;96707.56;4968923;28;20046;-82
2023/08/17 03:48:54;;;;;;;0.10;0.10;;;;;;;15.43;100.00;96706.25;4970626;28;20043;-81
2023/08/17 03:51:40;;;;;;;0.10;0.10;;;;;;;15.30;100.00;96708.41;4981825;28;20042;-82
2023/08/17 03:54:26;;;;;;;0.10;0.10;;;;;;;15.26;100.00;96709.25;4983021;28;20045;-81
2023/08/17 03:57:12;;;;;;;0.10;0.10;;;;;;;15.23;100.00;96707.88;4970588;28;20320;-81
2023/08/17 03:59:58;;;;;;;0.10;0.10;;;;;;;15.16;100.00;96714.63;4983046;28;20036;-81
2023/08/17 04:02:44;;;;;;;0.10;0.10;;;;;;;15.16;100.00;96720.81;4983856;28;20057;-82
2023/08/17 04:05:35;;;;;;;0.10;0.10;;;;;;;15.31;100.00;96707.31;4973132;28;20049;-82
2023/08/17 04:08:20;;;;;;;0.10;0.10;;;;;;;15.14;100.00;96717.59;4969741;28;20515;-82
2023/08/17 04:11:06;;;;;;;0.10;0.10;;;;;;;14.79;100.00;96725.69;4981235;28;20042;-82
2023/08/17 04:13:52;;;;;;;0.10;0.10;;;;;;;14.80;100.00;96719.22;4984580;28;20035;-81
2023/08/17 04:16:40;;;;;;;0.10;0.10;;;;;;;14.97;100.00;96725.16;4984875;28;20258;-82
2023/08/17 04:19:26;;;;;;;0.00;0.00;;;;;;;14.86;100.00;96726.22;4970724;28;20076;-82
2023/08/17 04:22:12;;;;;;;0.00;0.00;;;;;;;14.89;100.00;96739.16;4971715;28;20522;-82
2023/08/17 04:24:58;;;;;;;0.10;0.10;;;;;;;14.99;100.00;96734.56;4982503;28;20595;-81
2023/08/17 04:27:45;;;;;;;0.10;0.10;;;;;;;15.11;100.00;96737.00;4977485;28;20122;-82
2023/08/17 04:30:31;;;;;;;0.13;0.10;;;;;;;15.19;100.00;96741.88;4983871;28;20116;-82
2023/08/17 04:33:20;;;;;;;0.20;0.20;;;;;;;15.25;100.00;96743.47;4960391;28;20042;-81
2023/08/17 04:36:06;;;;;;;0.10;0.10;;;;;;;15.41;100.00;96749.66;4970763;28;20049;-82
2023/08/17 04:38:52;;;;;;;0.10;0.10;;;;;;;15.59;100.00;96756.38;4975725;28;20038;-82
2023/08/17 04:41:38;;;;;;;0.10;0.10;;;;;;;15.69;100.00;96761.75;4974504;28;20523;-82
2023/08/17 04:44:27;;;;;;;0.20;0.20;;;;;;;15.96;100.00;96768.72;4974810;28;20042;-82
2023/08/17 04:47:13;;;;;;;0.10;0.10;;;;;;;16.13;100.00;96771.88;4974109;28;20312;-82
2023/08/17 04:49:58;;;;;;;0.10;0.10;;;;;;;16.08;100.00;96782.69;4970251;28;20045;-82
2023/08/17 04:52:45;;;;;;;0.15;0.15;;;;;;;16.12;100.00;96773.78;4970802;28;20065;-82
2023/08/17 04:55:31;;;;;;;0.15;0.15;;;;;;;16.29;100.00;96783.44;4974459;28;20048;-82
2023/08/17 04:58:18;;;;;;;0.10;0.10;;;;;;;16.39;100.00;96781.47;4972214;28;20038;-82
2023/08/17 05:01:03;;;;;;;0.10;0.10;;;;;;;16.46;100.00;96777.69;4983361;28;20400;-82
2023/08/17 05:03:49;;;;;;;0.10;0.10;;;;;;;16.38;100.00;96779.88;4973974;28;20121;-81
2023/08/17 05:06:36;;;;;;;0.20;0.20;;;;;;;16.48;100.00;96776.31;4969664;28;20399;-82
2023/08/17 05:09:22;;;;;;;0.10;0.10;;;;;;;16.55;100.00;96771.41;4980472;28;20590;-82
2023/08/17 05:12:08;;;;;;;0.10;0.10;;;;;;;16.52;100.00;96766.56;4982632;28;20734;-81
2023/08/17 05:14:56;;;;;;;0.10;0.10;;;;;;;16.60;100.00;96778.69;4982333;28;20042;-82
2023/08/17 05:17:42;;;;;;;0.10;0.10;;;;;;;16.62;100.00;96781.91;4971138;28;20488;-81
2023/08/17 05:20:31;;;;;;;0.20;0.20;;;;;;;16.76;100.00;96777.53;4969985;28;20049;-81
2023/08/17 05:23:16;;;;;;;0.22;0.22;;;;;;;16.89;100.00;96785.03;4981529;28;20169;-81
2023/08/17 05:26:03;;;;;;;0.30;0.20;;;;;;;16.87;100.00;96784.47;4971011;28;20045;-81
2023/08/17 05:28:49;;;;;;;0.32;0.22;;;;;;;16.94;100.00;96786.88;4975747;28;20042;-82
2023/08/17 05:31:38;;;;;;;0.25;0.20;;;;;;;17.12;100.00;96785.38;4969484;28;20388;-81
2023/08/17 05:34:24;;;;;;;0.70;0.40;;;;;;;17.19;100.00;96793.97;4972731;28;20153;-81
2023/08/17 05:37:10;;;;;;;1.08;0.57;;;;;;;17.26;100.00;96783.66;4969017;28;20089;-82
2023/08/17 05:39:56;;;;;;;0.93;0.50;;;;;;;17.14;100.00;96788.63;4982450;28;20095;-81
2023/08/17 05:42:42;;;;;;;0.82;0.40;;;;;;;17.15;100.00;96784.84;4968255;28;20522;-80
2023/08/17 05:45:28;;;;;;;0.90;0.47;;;;;;;17.32;100.00;96790.63;4970667;28;20081;-82
2023/08/17 05:48:13;;;;;;;0.10;0.10;;;;;;;17.27;100.00;96794.22;4970647;28;20045;-81
2023/08/17 05:50:59;;;;;;;0.60;0.30;;;;;;;17.39;100.00;96790.31;4983042;28;20177;-81
2023/08/17 05:53:45;;;;;;;1.10;0.50;;;;;;;17.58;100.00;96787.69;4981554;28;20033;-81
2023/08/17 05:56:31;;;;;;;0.75;0.38;;;;;;;17.59;100.00;96770.38;4980509;28;20121;-81
2023/08/17 05:59:17;;;;;;;0.65;0.40;;;;;;;17.54;100.00;96780.16;4982396;28;20116;-81
2023/08/17 06:02:03;;;;;;;0.13;0.13;;;;;;;17.77;100.00;96775.09;4980915;28;20038;-81
2023/08/17 06:04:48;;;;;;;0.40;0.30;;;;;;;17.52;100.00;96786.97;4980676;28;20042;-81
2023/08/17 06:07:34;;;;;;;0.35;0.30;;;;;;;17.79;100.00;96786.44;4969236;28;20648;-81
2023/08/17 06:10:24;;;;;;;0.47;0.30;;;;;;;17.60;100.00;96788.25;4982506;28;20049;-81
2023/08/17 06:13:10;;;;;;;0.20;0.20;;;;;;;17.58;100.00;96790.41;4980090;28;20958;-81
2023/08/17 06:15:57;;;;;;;0.10;0.10;;;;;;;17.68;100.00;96796.53;4981581;28;20864;-82
2023/08/17 06:18:42;;;;;;;0.60;0.30;;;;;;;17.94;100.00;96778.16;4981023;28;20033;-81
2023/08/17 06:21:28;;;;;;;0.10;0.10;;;;;;;18.16;100.00;96771.44;4980853;28;20128;-81
2023/08/17 06:24:14;;;;;;;0.20;0.20;;;;;;;18.16;100.00;96777.66;4981398;28;20046;-82
2023/08/17 06:27:00;;;;;;;0.13;0.13;;;;;;;18.36;100.00;96771.16;4968174;28;20046;-82
2023/08/17 06:29:46;;;;;;;0.10;0.10;;;;;;;18.34;100.00;96768.75;4982363;28;20050;-82
2023/08/17 06:32:31;;;;;;;0.10;0.10;;;;;;;18.42;100.00;96764.59;4982708;28;20271;-81
2023/08/17 06:35:17;;;;;;;0.10;0.10;;;;;;;18.58;100.00;96776.03;4984363;28;20045;-82
2023/08/17 06:38:03;;;;;;;0.10;0.10;;;;;;;18.87;100.00;96778.63;4982238;28;20081;-82
2023/08/17 06:40:52;;;;;;;0.17;0.10;;;;;;;18.83;100.00;96781.16;4974863;28;20335;-83
2023/08/17 06:43:37;;;;;;;0.10;0.10;;;;;;;18.85;100.00;96780.84;4979594;28;20077;-81
2023/08/17 06:46:24;;;;;;;0.10;0.10;;;;;;;19.00;100.00;96777.09;4985782;28;20073;-82
2023/08/17 06:49:12;;;;;;;0.10;0.10;;;;;;;18.96;100.00;96779.59;4985281;28;20398;-84
2023/08/17 06:51:58;;;;;;;0.00;0.00;;;;;;;18.83;100.00;96783.03;4985379;28;20511;-83
2023/08/17 06:54:44;;;;;;;0.10;0.10;;;;;;;18.46;100.00;96781.09;4984721;28;20080;-82
2023/08/17 06:57:29;;;;;;;0.10;0.10;;;;;;;18.65;100.00;96784.59;4984313;28;20084;-83
2023/08/17 07:00:16;;;;;;;0.10;0.10;;;;;;;18.78;100.00;96786.63;4983859;28;20042;-83
2023/08/17 07:03:02;;;;;;;0.20;0.20;;;;;;;18.77;100.00;96789.63;4986405;28;20129;-83
2023/08/17 07:05:48;;;;;;;0.10;0.10;;;;;;;18.70;100.00;96784.56;4984509;28;20448;-83
2023/08/17 07:08:33;;;;;;;0.10;0.10;;;;;;;19.03;100.00;96782.72;4971718;28;20038;-82
2023/08/17 07:11:19;;;;;;;0.10;0.10;;;;;;;19.28;100.00;96778.81;4986909;28;20427;-83
2023/08/17 07:14:08;;;;;;;0.10;0.10;;;;;;;19.40;100.00;96778.34;4985493;28;20042;-82
2023/08/17 07:16:53;;;;;;;0.10;0.10;;;;;;;19.16;100.00;96790.13;4985651;28;20424;-83
2023/08/17 07:19:39;;;;;;;0.20;0.20;;;;;;;19.13;100.00;96796.13;4986194;28;20041;-82
2023/08/17 07:22:25;;;;;;;0.20;0.20;;;;;;;19.20;100.00;96790.34;4986986;28;20316;-84
2023/08/17 07:25:11;;;;;;;0.10;0.10;;;;;;;19.26;100.00;96800.00;4986066;28;20046;-82
2023/08/17 07:27:57;;;;;;;0.10;0.10;;;;;;;19.01;100.00;96806.63;4984880;28;20169;-83
2023/08/17 07:30:42;;;;;;;0.10;0.10;;;;;;;19.56;100.00;96792.47;4987770;28;20073;-81
2023/08/17 07:33:28;;;;;;;0.10;0.10;;;;;;;19.72;100.00;96793.84;4985513;28;20137;-82
2023/08/17 07:36:14;;;;;;;0.10;0.10;;;;;;;19.29;100.00;96804.03;4985026;28;20372;-83
2023/08/17 07:39:00;;;;;;;0.00;0.00;;;;;;;19.11;100.00;96803.75;4985324;28;20169;-82
2023/08/17 07:41:46;;;;;;;0.00;0.00;;;;;;;19.26;100.00;96800.00;4974566;28;20077;-83
2023/08/17 07:44:33;;;;;;;0.10;0.10;;;;;;;19.47;100.00;96800.50;4984701;28;20098;-82
2023/08/17 07:47:18;;;;;;;0.10;0.10;;;;;;;19.66;100.00;96801.25;5001990;28;20034;-84
2023/08/17 07:50:05;;;;;;;0.10;0.10;;;;;;;20.02;100.00;96806.06;4998255;28;20065;-83
2023/08/17 07:52:53;;;;;;;0.10;0.10;;;;;;;20.31;100.00;96803.88;4984805;28;20061;-82
2023/08/17 07:55:39;;;;;;;0.15;0.15;;;;;;;20.65;100.00;96801.84;4985471;28;20080;-83
2023/08/17 07:58:25;;;;;;;0.10;0.10;;;;;;;20.83;100.00;96798.97;4982700;28;20092;-84
2023/08/17 08:01:11;;;;;;;0.10;0.10;;;;;;;20.79;100.00;96799.91;4986156;28;20097;-81
2023/08/17 08:03:57;;;;;;;0.17;0.17;;;;;;;20.52;100.00;96801.53;4983468;28;20049;-81
2023/08/17 08:06:43;;;;;;;0.10;0.10;;;;;;;20.83;100.00;96803.59;4984195;28;20038;-83
2023/08/17 08:09:29;;;;;;;0.10;0.10;;;;;;;21.18;100.00;96799.28;4983728;28;20558;-81
2023/08/17 08:12:15;;;;;;;0.10;0.10;;;;;;;21.48;100.00;96794.22;4985932;28;20046;-82
2023/08/17 08:15:01;;;;;;;0.10;0.10;;;;;;;21.69;100.00;96798.84;4982543;28;20217;-81
2023/08/17 08:17:47;;;;;;;0.10;0.10;;;;;;;21.60;100.00;96794.47;4985100;28;20054;-82
2023/08/17 08:20:33;;;;;;;0.10;0.10;;;;;;;21.39;100.00;96800.41;4984812;28;20038;-82
2023/08/17 08:23:18;;;;;;;0.10;0.10;;;;;;;21.69;100.00;96801.56;4986454;28;20243;-82
2023/08/17 08:26:04;;;;;;;0.10;0.10;;;;;;;21.87;100.00;96802.50;4985520;28;20181;-81
2023/08/17 08:28:50;;;;;;;0.10;0.10;;;;;;;22.09;100.00;96796.19;4989443;28;20847;-82
2023/08/17 08:31:36;;;;;;;0.10;0.10;;;;;;;22.25;100.00;96797.38;4989279;28;20065;-82
2023/08/17 08:34:22;;;;;;;0.10;0.10;;;;;;;22.07;100.00;96790.22;4982884;28;20038;-83
2023/08/17 08:37:07;;;;;;;0.10;0.10;;;;;;;22.18;100.00;96777.19;4983272;28;20068;-83
2023/08/17 08:39:55;;;;;;;0.20;0.20;;;;;;;22.37;100.00;96799.53;4983180;28;20034;-82
2023/08/17 08:42:41;;;;;;;0.10;0.10;;;;;;;22.48;100.00;96800.81;4984639;28;20487;-82
2023/08/17 08:45:29;;;;;;;0.10;0.10;;;;;;;22.45;100.00;96787.84;4984398;28;20113;-83
2023/08/17 08:48:17;;;;;;;0.10;0.10;;;;;;;22.48;100.00;96786.38;4983232;28;20435;-84
2023/08/17 08:51:07;;;;;;;0.10;0.10;;;;;;;22.58;100.00;96790.75;4982964;28;20117;-84
2023/08/17 08:54:02;;;;;;;0.10;0.10;;;;;;;22.69;100.00;96786.59;4969576;28;20034;-83
2023/08/17 08:56:54;;;;;;;0.10;0.10;;;;;;;23.11;100.00;96781.53;4984494;28;20146;-84
2023/08/17 08:59:44;;;;;;;0.10;0.10;;;;;;;23.00;100.00;96792.78;4984371;28;20061;-82
2023/08/17 09:02:30;;;;;;;0.10;0.10;;;;;;;23.06;100.00;96793.41;4984370;28;20069;-83
2023/08/17 09:05:16;;;;;;;0.10;0.10;;;;;;;23.10;100.00;96785.38;4984946;28;20049;-82
2023/08/17 09:08:03;;;;;;;0.00;0.00;;;;;;;23.09;100.00;96781.84;4982737;28;20217;-85
2023/08/17 09:10:49;;;;;;;0.10;0.10;;;;;;;23.28;100.00;96792.47;4982817;28;20124;-82
2023/08/17 09:13:35;;;;;;;0.10;0.10;;;;;;;23.32;100.00;96787.94;4983226;28;20470;-83
2023/08/17 09:16:21;;;;;;;0.10;0.10;;;;;;;23.54;100.00;96789.69;4982718;28;20467;-82
2023/08/17 09:19:07;;;;;;;0.03;0.03;;;;;;;23.63;100.00;96791.31;4984536;28;20144;-84
2023/08/17 09:21:53;;;;;;;0.10;0.10;;;;;;;23.86;100.00;96788.38;4982873;28;20045;-83
2023/08/17 09:24:39;;;;;;;0.10;0.10;;;;;;;24.03;100.00;96788.28;4983333;28;20076;-82
2023/08/17 09:27:25;;;;;;;0.10;0.10;;;;;;;23.98;100.00;96783.03;4982898;28;20509;-82
2023/08/17 09:30:11;;;;;;;0.10;0.10;;;;;;;24.00;100.00;96782.69;4981130;28;20061;-83
2023/08/17 09:33:02;;;;;;;0.10;0.10;;;;;;;24.13;100.00;96777.03;4982669;28;20033;-82
2023/08/17 09:35:49;;;;;;;0.13;0.13;;;;;;;24.42;100.00;96775.44;4984422;28;20450;-82
2023/08/17 09:38:37;;;;;;;0.10;0.10;;;;;;;24.66;100.00;96772.09;4982673;28;20049;-82
2023/08/17 09:41:23;;;;;;;0.10;0.10;;;;;;;25.15;100.00;96775.16;4982683;28;20125;-82
2023/08/17 09:44:11;;;;;;;0.10;0.10;;;;;;;25.40;100.00;96774.13;4969695;28;20046;-83
2023/08/17 09:46:57;;;;;;;0.00;0.00;;;;;;;25.19;100.00;96771.41;4981943;28;20142;-84
2023/08/17 09:49:51;;;;;;;0.10;0.10;;;;;;;24.86;100.00;96768.59;4984121;28;20323;-82
2023/08/17 09:52:38;;;;;;;0.10;0.10;;;;;;;24.46;100.00;96770.94;4980268;28;20034;-82
2023/08/17 09:55:25;;;;;;;0.10;0.10;;;;;;;24.56;100.00;96770.56;4983146;28;20092;-84
2023/08/17 09:58:17;;;;;;;0.10;0.10;;;;;;;24.63;100.00;96778.25;4982589;28;20146;-83
2023/08/17 10:01:05;;;;;;;0.10;0.10;;;;;;;24.78;100.00;96779.59;4969416;28;20083;-82
2023/08/17 10:03:53;;;;;;;0.13;0.13;;;;;;;25.11;100.00;96777.75;4983676;28;20120;-84
2023/08/17 10:06:41;;;;;;;0.17;0.17;;;;;;;25.46;100.00;96783.75;4969240;28;20219;-84
2023/08/17 10:09:34;;;;;;;0.20;0.20;;;;;;;25.70;100.00;96777.53;4982784;28;20057;-82
2023/08/17 10:12:26;;;;;;;0.10;0.10;;;;;;;25.75;100.00;96769.13;4958980;28;20069;-84
2023/08/17 10:15:16;;;;;;;0.10;0.10;;;;;;;25.77;100.00;96758.66;4981874;28;20447;-83
2023/08/17 10:18:22;;;;;;;0.10;0.10;;;;;;;25.76;100.00;96772.69;4981160;28;20026;-82
2023/08/17 10:21:17;;;;;;;0.10;0.10;;;;;;;25.78;100.00;96773.94;4983361;28;20038;-85
2023/08/17 10:24:05;;;;;;;0.17;0.17;;;;;;;26.11;100.00;96773.88;4985828;28;20666;-83
2023/08/17 10:26:51;;;;;;;0.10;0.10;;;;;;;26.32;100.00;96765.56;4986325;28;20546;-82
2023/08/17 10:29:40;;;;;;;0.10;0.10;;;;;;;26.15;100.00;96770.44;4985477;28;20046;-83
2023/08/17 10:32:27;;;;;;;0.10;0.10;;;;;;;26.41;100.00;96762.72;4982093;28;20395;-83
2023/08/17 10:35:14;;;;;;;0.17;0.17;;;;;;;26.55;100.00;96765.13;4983607;28;20483;-83
2023/08/17 10:38:00;;;;;;;0.10;0.10;;;;;;;26.53;100.00;96761.91;4985318;28;20034;-83
2023/08/17 10:41:07;;;;;;;0.10;0.10;;;;;;;26.13;100.00;96762.56;4982712;28;20117;-82
2023/08/17 10:43:54;;;;;;;0.10;0.10;;;;;;;26.13;100.00;96764.50;4984876;28;20502;-84
2023/08/17 10:46:42;;;;;;;0.10;0.10;;;;;;;26.52;100.00;96766.59;4986582;28;20208;-83
2023/08/17 10:49:28;;;;;;;0.10;0.10;;;;;;;26.73;100.00;96760.19;4985104;28;20038;-82
2023/08/17 10:52:14;;;;;;;0.10;0.10;;;;;;;27.11;100.00;96768.03;4986528;28;20513;-81
2023/08/17 10:55:05;;;;;;;0.10;0.10;;;;;;;26.99;100.00;96762.50;4984661;28;20546;-84
2023/08/17 10:57:51;;;;;;;0.10;0.10;;;;;;;27.03;100.00;96761.50;4982728;28;20041;-84
2023/08/17 11:00:38;;;;;;;0.10;0.10;;;;;;;27.05;100.00;96764.72;4983649;28;20658;-82
2023/08/17 11:03:24;;;;;;;0.10;0.10;;;;;;;26.93;100.00;96770.22;4985011;28;20068;-83
2023/08/17 11:06:17;;;;;;;0.10;0.10;;;;;;;26.40;100.00;96771.31;4982275;28;20041;-83
2023/08/17 11:09:07;;;;;;;0.10;0.10;;;;;;;25.72;100.00;96772.56;4984559;28;20423;-83
2023/08/17 11:11:54;;;;;;;0.10;0.10;;;;;;;25.83;100.00;96776.44;4983511;28;20065;-83
2023/08/17 11:14:44;;;;;;;0.08;0.08;;;;;;;26.00;100.00;96772.72;4977448;28;20479;-84
2023/08/17 11:17:30;;;;;;;0.10;0.10;;;;;;;26.33;100.00;96778.13;4985816;28;20470;-83
2023/08/17 11:20:15;;;;;;;0.10;0.10;;;;;;;26.86;100.00;96776.28;4986517;28;20565;-85
2023/08/17 11:23:02;;;;;;;0.10;0.10;;;;;;;27.48;100.00;96777.72;4985275;28;20564;-82
2023/08/17 11:25:48;;;;;;;0.10;0.10;;;;;;;31.14;96.02;96762.91;4985731;28;20042;-81
2023/08/17 11:28:38;;;;;;;0.20;0.20;;;;;;;37.00;62.52;96769.91;4985370;28;20038;-84
2023/08/17 11:31:25;;;;;;;0.17;0.10;;;;;;;36.92;54.02;96768.41;4985064;28;20077;-84
2023/08/17 11:34:14;;;;;;;0.15;0.15;;;;;;;37.65;52.04;96775.53;4984604;28;20510;-83
2023/08/17 11:37:00;;;;;;;0.10;0.10;;;;;;;39.95;42.50;96771.19;4985015;28;20042;-84
2023/08/17 11:39:46;;;;;;;0.10;0.10;;;;;;;38.58;46.14;96777.78;4985538;28;20621;-84
2023/08/17 11:42:31;;;;;;;0.00;0.00;;;;;;;32.88;82.48;96770.22;4984416;28;20073;-83
2023/08/17 11:45:18;;;;;;;0.10;0.10;;;;;;;30.83;92.00;96764.06;4983100;28;20048;-84
2023/08/17 11:48:07;;;;;;;0.00;0.00;;;;;;;29.86;93.34;96776.22;4981650;28;20447;-82
2023/08/17 11:50:54;;;;;;;0.03;0.03;;;;;;;29.92;98.64;96765.69;4984030;28;20046;-83
2023/08/17 11:53:40;;;;;;;0.10;0.10;;;;;;;31.95;88.58;96765.84;4982482;28;20030;-83
2023/08/17 11:56:26;;;;;;;0.00;0.00;;;;;;;30.21;92.81;96772.53;4975325;28;20140;-83
2023/08/17 11:59:22;;;;;;;0.10;0.10;;;;;;;34.23;76.88;96760.81;4984054;28;20029;-83
2023/08/17 12:02:08;;;;;;;0.10;0.10;;;;;;;34.72;73.15;96762.81;4983186;28;20489;-83
2023/08/17 12:04:56;;;;;;;0.10;0.10;;;;;;;37.14;58.62;96755.03;4984497;28;20134;-83
2023/08/17 12:07:42;;;;;;;0.00;0.00;;;;;;;39.27;44.08;96765.00;4983513;28;20300;-82
2023/08/17 12:10:38;;;;;;;0.10;0.10;;;;;;;38.98;41.31;96755.53;4982736;28;20518;-84
2023/08/17 12:13:32;;;;;;;0.10;0.10;;;;;;;36.97;55.29;96751.25;4984379;28;20070;-82
2023/08/17 12:16:19;;;;;;;0.10;0.10;;;;;;;37.19;52.98;96757.34;4984334;28;20484;-83
2023/08/17 12:19:05;;;;;;;0.15;0.15;;;;;;;38.46;48.97;96756.84;4984984;28;20069;-83
2023/08/17 12:21:51;;;;;;;0.20;0.20;;;;;;;42.51;34.76;96747.31;4983265;28;20041;-84
2023/08/17 12:24:37;;;;;;;0.10;0.10;;;;;;;44.92;27.29;96746.25;4984720;28;20562;-83
2023/08/17 12:27:24;;;;;;;0.10;0.10;;;;;;;45.84;27.25;96744.13;4985310;28;20056;-84
2023/08/17 12:30:26;;;;;;;0.00;0.00;;;;;;;42.74;30.20;96751.78;4983657;28;20042;-84
2023/08/17 12:33:12;;;;;;;0.00;0.00;;;;;;;37.20;50.71;96758.13;4984331;28;20038;-83
2023/08/17 12:35:58;;;;;;;0.00;0.00;;;;;;;34.71;65.87;96766.78;4987474;28;20096;-84
2023/08/17 12:38:44;;;;;;;0.00;0.00;;;;;;;31.67;82.51;96754.47;4986906;28;20062;-82
2023/08/17 12:41:30;;;;;;;0.00;0.00;;;;;;;30.56;90.95;96772.31;4986190;28;20051;-84
2023/08/17 12:44:16;;;;;;;0.00;0.00;;;;;;;30.27;90.61;96770.25;4983504;28;20049;-84
2023/08/17 12:47:02;;;;;;;0.00;0.00;;;;;;;31.25;88.25;96758.34;4983224;28;20046;-83
2023/08/17 12:49:49;;;;;;;0.00;0.00;;;;;;;31.29;87.79;96762.75;4983277;28;20196;-84
2023/08/17 12:52:35;;;;;;;0.08;0.08;;;;;;;31.52;84.89;96765.38;4985344;28;20105;-84
2023/08/17 12:55:21;;;;;;;0.10;0.10;;;;;;;35.51;60.69;96768.19;4983821;28;20530;-84
2023/08/17 12:58:09;;;;;;;0.10;0.10;;;;;;;37.66;47.60;96777.13;4984506;28;20553;-84